West Hills, New York
Current Conditions -  °F | °C
As of 2:57 PM on Thursday 23 Oct 2014 (Local Time) from KFRG Reporting Station
Overcast Overcast  
Wind Chill: 52°   Ceiling: 2300
Heat Index: 52°   Visibility: 10mi
Dew Point: 47°   Wind: 16mph
Humidity: 83%   Direction: 350°N
Pressure: 29.65"   Gusts: 29mph
Location:  40.8966°N, 73.4362°W
Report Text: KFRG 231857Z 35014G25KT 10SM FEW009 OVC023 11/08 A2965 RMK AO2 T01110083
Loading
Personal Weather Stations






























Interactive Weather Map
Tropical Storm Tracking
New forecast layout! Learn more

10-Day Weather Forecast

Advertisements
Track Severe Weather on mobile